Stations météo

réclame
Mon MeteoGroup
St-Raphael, France (7680): Température de l'air & dewpoint: 05.12.2017 23:00:00 - 11.12.2017 23:00:00 (CET)St-Raphael, France (7680): Vitesse du vent & gusts: 05.12.2017 23:00:00 - 11.12.2017 23:00:00 (CET)St-Raphael, France (7680): Direction du vent: 05.12.2017 23:00:00 - 11.12.2017 23:00:00 (CET)St-Raphael, France (7680): Quantités de précipitations: 05.12.2017 23:00:00 - 11.12.2017 23:00:00 (CET)
Date & Time tt [°C] td [°C] ff [km/h] ff [knt] fx [km/h] fx [knt] dd rr [mm]
11.12.2017 23:00:00 9,7 5,7 18 10 41 22 W 0,0
11.12.2017 22:00:00 10,4 6,3 18 10 35 19 WSW 0,0
11.12.2017 21:00:00 11,4 8,1 16 9 35 19 W 0,0
11.12.2017 20:00:00 13,1 11,8 5 3 24 13 W 0,0
11.12.2017 19:00:00 13,6 12,3 11 6 44 24 S -
11.12.2017 18:00:00 14,4 13,1 26 14 54 29 S 5,0
11.12.2017 17:00:00 14,7 13,2 28 15 65 35 S 2,0
11.12.2017 16:00:00 15,0 13,7 29 16 57 31 S 4,0
11.12.2017 15:00:00 15,1 13,6 26 14 57 31 S 2,0
11.12.2017 14:00:00 14,7 13,4 24 13 54 29 SSW 7,0
11.12.2017 13:00:00 14,7 13,6 29 16 74 40 SSW -
11.12.2017 12:00:00 13,9 12,6 34 18 65 35 S 3,0
11.12.2017 11:00:00 14,5 13,4 29 16 54 29 SSE 5,0
11.12.2017 10:00:00 14,6 13,5 34 18 63 34 S 3,0
11.12.2017 09:00:00 14,5 13,4 34 18 67 36 S 3,0
11.12.2017 08:00:00 14,6 13,5 31 17 63 34 S 2,0
11.12.2017 07:00:00 14,4 13,4 29 16 57 31 S -
11.12.2017 06:00:00 14,2 13,2 24 13 44 24 S 5,0
11.12.2017 05:00:00 13,6 13,0 11 6 34 18 S 1,0
11.12.2017 04:00:00 13,4 13,2 21 11 37 20 S 2,0
11.12.2017 03:00:00 9,1 8,8 8 4 26 14 NNW 0,4
11.12.2017 02:00:00 7,5 7,1 4 2 9 5 NW 0,2
11.12.2017 01:00:00 7,5 7,1 2 1 11 6 NNW -
11.12.2017 00:00:00 6,9 6,5 4 2 9 5 NNW 0,0
10.12.2017 23:00:00 6,1 5,7 4 2 11 6 WNW 0,2
10.12.2017 22:00:00 5,5 5,1 2 1 13 7 WNW 2,0
10.12.2017 21:00:00 4,8 4,4 5 3 11 6 NNW 2,0
10.12.2017 20:00:00 4,4 3,8 5 3 13 7 NW 1,0
10.12.2017 19:00:00 4,3 3,7 5 3 11 6 NNW -
10.12.2017 18:00:00 3,9 3,3 5 3 15 8 WNW 0,2
10.12.2017 17:00:00 3,7 3,1 5 3 18 10 WNW 0,8
10.12.2017 16:00:00 3,4 2,8 8 4 16 9 NNW 1,0
10.12.2017 15:00:00 3,2 2,5 8 4 18 10 NW 0,8
10.12.2017 14:00:00 2,8 2,1 8 4 18 10 NW 1,0
10.12.2017 13:00:00 2,3 1,6 9 5 18 10 NW -
10.12.2017 12:00:00 1,9 1,0 8 4 13 7 NW 2,0
10.12.2017 11:00:00 1,5 0,6 8 4 13 7 WNW 2,0
10.12.2017 10:00:00 1,8 0,6 8 4 16 9 NW 1,0
10.12.2017 09:00:00 2,4 -2,9 5 3 13 7 N 0,4
10.12.2017 08:00:00 3,2 -6,8 4 2 9 5 NNE 0,0
10.12.2017 07:00:00 3,1 -7,4 4 2 11 6 NW -
10.12.2017 06:00:00 2,6 -7,6 4 2 18 10 N 0,0
10.12.2017 05:00:00 2,0 -7,9 8 4 28 15 NNW 0,0
10.12.2017 04:00:00 1,8 -8,3 15 8 28 15 NNW 0,0
10.12.2017 03:00:00 1,6 -8,2 13 7 31 17 NNW 0,0
10.12.2017 02:00:00 1,2 -8,4 11 6 26 14 NNW 0,0
10.12.2017 01:00:00 1,5 -8,6 11 6 28 15 NNW -
10.12.2017 00:00:00 1,9 -8,5 13 7 26 14 NNW 0,0
09.12.2017 23:00:00 2,5 -8,5 13 7 28 15 NNW 0,0
09.12.2017 22:00:00 2,5 -8,8 11 6 28 15 NW 0,0
09.12.2017 21:00:00 3,9 -9,2 13 7 26 14 NW 0,0
09.12.2017 20:00:00 4,5 -9,7 13 7 35 19 WNW 0,0
09.12.2017 19:00:00 5,4 -10,0 21 11 41 22 WNW -
09.12.2017 18:00:00 6,0 -9,9 18 10 37 20 WNW 0,0
09.12.2017 17:00:00 7,1 -9,8 22 12 39 21 W 0,0
09.12.2017 16:00:00 8,4 -9,6 22 12 44 24 WNW 0,0
09.12.2017 15:00:00 9,4 -9,7 26 14 50 27 W 0,0
09.12.2017 14:00:00 9,9 -9,8 22 12 46 25 W 0,0
09.12.2017 13:00:00 9,6 -9,5 26 14 - - W -
09.12.2017 12:00:00 8,8 -8,3 28 15 54 29 WNW 0,0
09.12.2017 11:00:00 8,3 -7,9 22 12 54 29 WNW 0,0
09.12.2017 10:00:00 7,0 -7,4 24 13 61 33 WNW 0,0
09.12.2017 09:00:00 5,8 -7,5 29 16 63 34 W 0,0
09.12.2017 08:00:00 5,2 -7,0 29 16 54 29 W 0,0
09.12.2017 07:00:00 5,5 -7,4 29 16 55 30 W -
09.12.2017 06:00:00 5,7 -7,2 28 15 54 29 WNW 0,0
09.12.2017 05:00:00 6,0 -6,6 29 16 61 33 W 0,0
09.12.2017 04:00:00 6,6 -6,7 34 18 63 34 W 0,0
09.12.2017 03:00:00 7,0 -7,1 34 18 68 37 W 0,0
09.12.2017 02:00:00 7,2 -6,5 37 20 72 39 W 0,0
09.12.2017 01:00:00 7,7 -6,1 39 21 70 38 WNW -
09.12.2017 00:00:00 8,0 -6,2 35 19 85 46 W 0,0
08.12.2017 23:00:00 8,6 -4,9 37 20 80 43 WNW 0,0
08.12.2017 22:00:00 8,9 -4,0 41 22 89 48 W 0,0
08.12.2017 21:00:00 9,3 -3,3 44 24 83 45 W 0,0
08.12.2017 20:00:00 9,7 -2,3 46 25 87 47 W 0,0
08.12.2017 19:00:00 9,5 0,1 34 18 65 35 W -
08.12.2017 18:00:00 10,0 3,9 26 14 57 31 W 0,0
08.12.2017 17:00:00 10,6 5,4 24 13 55 30 W 0,0
08.12.2017 16:00:00 10,6 5,6 26 14 55 30 WSW 0,0
08.12.2017 15:00:00 11,6 5,9 28 15 52 28 W 0,0
08.12.2017 14:00:00 11,9 5,5 29 16 54 29 W 0,0
08.12.2017 13:00:00 11,8 5,4 26 14 42 23 W -
08.12.2017 12:00:00 11,6 6,5 16 9 31 17 WSW 0,0
08.12.2017 11:00:00 11,2 6,3 11 6 21 11 W 0,0
08.12.2017 10:00:00 8,8 6,4 5 3 13 7 NW 0,0
08.12.2017 09:00:00 7,9 5,9 5 3 16 9 WNW 0,0
08.12.2017 08:00:00 6,7 5,5 5 3 9 5 NNW 0,0
08.12.2017 07:00:00 6,2 4,8 5 3 11 6 W -
08.12.2017 06:00:00 6,6 5,1 8 4 16 9 NW 0,0
08.12.2017 05:00:00 5,9 4,7 11 6 16 9 NW 0,0
08.12.2017 04:00:00 6,6 5,1 8 4 16 9 NW 0,0
08.12.2017 03:00:00 6,2 4,7 9 5 18 10 W 0,0
08.12.2017 02:00:00 6,6 4,8 8 4 16 9 WNW 0,0
08.12.2017 01:00:00 7,1 5,1 8 4 16 9 NNW -
08.12.2017 00:00:00 7,1 5,2 8 4 11 6 NW 0,0
07.12.2017 23:00:00 6,2 4,8 2 1 9 5 SW 0,0
07.12.2017 22:00:00 7,7 5,7 5 3 15 8 NW 0,0
07.12.2017 21:00:00 8,1 5,7 5 3 11 6 NW 0,0
07.12.2017 20:00:00 9,2 6,3 4 2 8 4 NW 0,0
07.12.2017 19:00:00 10,2 6,9 4 2 8 4 NW -
07.12.2017 18:00:00 10,6 6,9 4 2 8 4 W 0,0
07.12.2017 17:00:00 11,2 6,1 4 2 15 8 SW 0,0
07.12.2017 16:00:00 13,2 6,3 9 5 15 8 W 0,0
07.12.2017 15:00:00 13,9 6,7 8 4 18 10 W 0,0
07.12.2017 14:00:00 13,9 6,5 9 5 26 14 W 0,0
07.12.2017 13:00:00 14,2 6,8 11 6 21 11 W -
07.12.2017 12:00:00 12,5 5,2 9 5 22 12 WNW 0,0
07.12.2017 11:00:00 10,5 4,6 9 5 18 10 NW 0,0
07.12.2017 10:00:00 6,7 4,4 5 3 15 8 NW 0,0
07.12.2017 09:00:00 5,2 3,4 8 4 18 10 NNW 0,0
07.12.2017 08:00:00 4,1 2,9 4 2 16 9 NW 0,0
07.12.2017 07:00:00 4,1 2,6 9 5 22 12 W -
07.12.2017 06:00:00 3,5 2,3 8 4 21 11 NW 0,0
07.12.2017 05:00:00 2,9 1,9 8 4 22 12 NNW 0,0
07.12.2017 04:00:00 2,8 1,6 5 3 15 8 NW 0,0
07.12.2017 03:00:00 3,1 2,1 5 3 18 10 NNW 0,0
07.12.2017 02:00:00 3,4 2,4 9 5 21 11 NNW 0,0
07.12.2017 01:00:00 4,1 3,1 9 5 18 10 NNW -
07.12.2017 00:00:00 3,8 2,8 8 4 15 8 NW 0,0
06.12.2017 23:00:00 2,8 2,1 5 3 11 6 WNW 0,0
06.12.2017 22:00:00 3,9 3,2 5 3 9 5 NW 0,0
06.12.2017 21:00:00 4,0 2,5 2 1 9 5 W 0,0
06.12.2017 20:00:00 6,4 5,0 4 2 8 4 NW 0,0
06.12.2017 19:00:00 7,2 5,3 4 2 5 3 WNW -
06.12.2017 18:00:00 8,8 6,2 2 1 8 4 NNE 0,0
06.12.2017 17:00:00 9,2 6,6 4 2 5 3 NE 0,0
06.12.2017 16:00:00 10,8 6,7 0 0 8 4 N 0,0
06.12.2017 15:00:00 11,3 6,2 5 3 13 7 WSW 0,0
06.12.2017 14:00:00 12,1 5,9 8 4 15 8 WNW 0,0
06.12.2017 13:00:00 9,0 4,8 8 4 16 9 NW -
06.12.2017 12:00:00 8,4 4,6 8 4 16 9 NW 0,0
06.12.2017 11:00:00 7,6 4,5 8 4 15 8 NNW 0,0
06.12.2017 10:00:00 6,5 4,2 8 4 16 9 NW 0,0
06.12.2017 09:00:00 5,8 3,8 8 4 15 8 NW 0,0
06.12.2017 08:00:00 5,1 3,4 8 4 16 9 NW 0,0
06.12.2017 07:00:00 4,7 3,2 8 4 16 9 NW -
06.12.2017 06:00:00 4,0 2,8 8 4 15 8 NW 0,0
06.12.2017 05:00:00 3,0 2,0 8 4 13 7 NW 0,0
06.12.2017 04:00:00 2,8 1,8 5 3 13 7 WNW 0,0
06.12.2017 03:00:00 2,8 1,6 5 3 15 8 WNW 0,0
06.12.2017 02:00:00 3,6 2,4 5 3 11 6 WNW 0,0
06.12.2017 01:00:00 3,8 2,5 4 2 11 6 WNW -
06.12.2017 00:00:00 3,8 2,5 8 4 13 7 NW 0,0
05.12.2017 23:00:00 3,6 2,3 8 4 11 6 WNW 0,0

tt = Température de l'air
td = dewpoint
ff = Vitesse du vent
fx = gusts
dd = Direction du vent
rr = Quantités de précipitations

stations d'obs. à proximité